sensor_id;sensor_type;location;lat;lon;timestamp;P1;durP1;ratioP1;P2;durP2;ratioP2
77769;SDS011;66961;51.482;9.160;2023-07-31T00:02:02;2.77;;;1.40;;
77769;SDS011;66961;51.482;9.160;2023-07-31T00:04:28;3.47;;;1.60;;
77769;SDS011;66961;51.482;9.160;2023-07-31T00:06:53;4.80;;;1.80;;
77769;SDS011;66961;51.482;9.160;2023-07-31T00:09:18;4.53;;;1.97;;
77769;SDS011;66961;51.482;9.160;2023-07-31T00:11:44;3.20;;;1.50;;
77769;SDS011;66961;51.482;9.160;2023-07-31T00:14:09;2.47;;;1.33;;
77769;SDS011;66961;51.482;9.160;2023-07-31T00:16:34;3.10;;;1.70;;
77769;SDS011;66961;51.482;9.160;2023-07-31T00:18:59;4.60;;;1.77;;
77769;SDS011;66961;51.482;9.160;2023-07-31T00:21:25;3.40;;;1.47;;
77769;SDS011;66961;51.482;9.160;2023-07-31T00:23:50;4.50;;;1.63;;
77769;SDS011;66961;51.482;9.160;2023-07-31T00:26:15;3.10;;;1.20;;
77769;SDS011;66961;51.482;9.160;2023-07-31T00:28:41;3.97;;;1.50;;
77769;SDS011;66961;51.482;9.160;2023-07-31T00:31:06;4.17;;;1.33;;
77769;SDS011;66961;51.482;9.160;2023-07-31T00:33:31;3.72;;;1.60;;
77769;SDS011;66961;51.482;9.160;2023-07-31T00:35:56;2.57;;;1.43;;
77769;SDS011;66961;51.482;9.160;2023-07-31T00:38:22;3.47;;;1.80;;
77769;SDS011;66961;51.482;9.160;2023-07-31T00:40:47;2.30;;;1.10;;
77769;SDS011;66961;51.482;9.160;2023-07-31T00:43:12;5.10;;;1.30;;
77769;SDS011;66961;51.482;9.160;2023-07-31T00:45:38;5.47;;;1.60;;
77769;SDS011;66961;51.482;9.160;2023-07-31T00:48:04;2.75;;;1.27;;
77769;SDS011;66961;51.482;9.160;2023-07-31T00:50:29;2.45;;;1.48;;
77769;SDS011;66961;51.482;9.160;2023-07-31T00:52:55;1.77;;;1.23;;
77769;SDS011;66961;51.482;9.160;2023-07-31T00:55:20;1.60;;;1.20;;
77769;SDS011;66961;51.482;9.160;2023-07-31T00:57:45;2.03;;;1.30;;
77769;SDS011;66961;51.482;9.160;2023-07-31T01:00:11;2.47;;;1.42;;
77769;SDS011;66961;51.482;9.160;2023-07-31T01:02:37;4.78;;;1.40;;
77769;SDS011;66961;51.482;9.160;2023-07-31T01:05:02;2.75;;;1.50;;
77769;SDS011;66961;51.482;9.160;2023-07-31T01:07:39;3.63;;;1.60;;
77769;SDS011;66961;51.482;9.160;2023-07-31T01:10:16;4.35;;;1.52;;
77769;SDS011;66961;51.482;9.160;2023-07-31T01:12:48;3.47;;;1.50;;
77769;SDS011;66961;51.482;9.160;2023-07-31T01:15:17;3.03;;;1.40;;
77769;SDS011;66961;51.482;9.160;2023-07-31T01:17:43;2.33;;;1.40;;
77769;SDS011;66961;51.482;9.160;2023-07-31T01:20:15;2.55;;;1.13;;
77769;SDS011;66961;51.482;9.160;2023-07-31T01:28:37;3.75;;;1.77;;
77769;SDS011;66961;51.482;9.160;2023-07-31T01:31:13;2.45;;;1.35;;
77769;SDS011;66961;51.482;9.160;2023-07-31T01:33:41;2.60;;;1.23;;
77769;SDS011;66961;51.482;9.160;2023-07-31T01:36:06;2.05;;;1.52;;
77769;SDS011;66961;51.482;9.160;2023-07-31T01:38:33;2.33;;;1.45;;
77769;SDS011;66961;51.482;9.160;2023-07-31T01:40:58;4.33;;;1.93;;
77769;SDS011;66961;51.482;9.160;2023-07-31T01:43:23;1.83;;;1.23;;
77769;SDS011;66961;51.482;9.160;2023-07-31T01:45:48;2.33;;;1.43;;
77769;SDS011;66961;51.482;9.160;2023-07-31T01:48:14;3.57;;;1.60;;
77769;SDS011;66961;51.482;9.160;2023-07-31T01:50:39;3.00;;;1.50;;
77769;SDS011;66961;51.482;9.160;2023-07-31T01:53:04;3.77;;;1.73;;
77769;SDS011;66961;51.482;9.160;2023-07-31T01:55:29;4.40;;;1.57;;
77769;SDS011;66961;51.482;9.160;2023-07-31T01:57:55;2.40;;;1.50;;
77769;SDS011;66961;51.482;9.160;2023-07-31T02:00:20;4.27;;;1.97;;
77769;SDS011;66961;51.482;9.160;2023-07-31T02:02:45;5.03;;;1.73;;
77769;SDS011;66961;51.482;9.160;2023-07-31T02:05:10;3.50;;;2.10;;
77769;SDS011;66961;51.482;9.160;2023-07-31T02:07:36;3.57;;;1.97;;
77769;SDS011;66961;51.482;9.160;2023-07-31T02:10:01;4.00;;;1.77;;
77769;SDS011;66961;51.482;9.160;2023-07-31T02:12:26;4.23;;;1.70;;
77769;SDS011;66961;51.482;9.160;2023-07-31T02:14:51;5.40;;;2.10;;
77769;SDS011;66961;51.482;9.160;2023-07-31T02:17:17;2.30;;;1.87;;
77769;SDS011;66961;51.482;9.160;2023-07-31T02:19:42;4.70;;;1.85;;
77769;SDS011;66961;51.482;9.160;2023-07-31T02:22:07;3.78;;;1.70;;
77769;SDS011;66961;51.482;9.160;2023-07-31T02:24:33;2.67;;;1.80;;
77769;SDS011;66961;51.482;9.160;2023-07-31T02:26:58;3.07;;;1.70;;
77769;SDS011;66961;51.482;9.160;2023-07-31T02:29:23;3.43;;;1.60;;
77769;SDS011;66961;51.482;9.160;2023-07-31T02:31:48;4.13;;;1.90;;
77769;SDS011;66961;51.482;9.160;2023-07-31T02:34:14;6.57;;;1.90;;
77769;SDS011;66961;51.482;9.160;2023-07-31T02:36:39;6.00;;;1.83;;
77769;SDS011;66961;51.482;9.160;2023-07-31T02:39:04;4.03;;;1.90;;
77769;SDS011;66961;51.482;9.160;2023-07-31T02:41:30;5.17;;;2.20;;
77769;SDS011;66961;51.482;9.160;2023-07-31T02:43:55;4.15;;;2.15;;
77769;SDS011;66961;51.482;9.160;2023-07-31T02:46:20;2.50;;;1.87;;
77769;SDS011;66961;51.482;9.160;2023-07-31T02:48:46;3.38;;;1.77;;
77769;SDS011;66961;51.482;9.160;2023-07-31T02:51:11;2.60;;;1.90;;
77769;SDS011;66961;51.482;9.160;2023-07-31T02:53:36;4.20;;;1.90;;
77769;SDS011;66961;51.482;9.160;2023-07-31T02:56:01;4.83;;;2.20;;
77769;SDS011;66961;51.482;9.160;2023-07-31T02:58:27;3.50;;;2.20;;
77769;SDS011;66961;51.482;9.160;2023-07-31T03:00:52;4.50;;;2.27;;
77769;SDS011;66961;51.482;9.160;2023-07-31T03:03:17;4.97;;;2.43;;
77769;SDS011;66961;51.482;9.160;2023-07-31T03:05:42;4.67;;;2.20;;
77769;SDS011;66961;51.482;9.160;2023-07-31T03:08:08;3.07;;;2.10;;
77769;SDS011;66961;51.482;9.160;2023-07-31T03:10:33;4.83;;;2.40;;
77769;SDS011;66961;51.482;9.160;2023-07-31T03:12:58;3.73;;;2.03;;
77769;SDS011;66961;51.482;9.160;2023-07-31T03:15:23;5.17;;;2.57;;
77769;SDS011;66961;51.482;9.160;2023-07-31T03:17:49;3.70;;;2.23;;
77769;SDS011;66961;51.482;9.160;2023-07-31T03:20:14;7.27;;;2.63;;
77769;SDS011;66961;51.482;9.160;2023-07-31T03:22:39;5.47;;;2.57;;
77769;SDS011;66961;51.482;9.160;2023-07-31T03:25:05;5.43;;;2.77;;
77769;SDS011;66961;51.482;9.160;2023-07-31T03:27:30;5.45;;;2.55;;
77769;SDS011;66961;51.482;9.160;2023-07-31T03:29:56;4.23;;;2.53;;
77769;SDS011;66961;51.482;9.160;2023-07-31T03:32:21;4.73;;;3.07;;
77769;SDS011;66961;51.482;9.160;2023-07-31T03:34:46;6.97;;;3.30;;
77769;SDS011;66961;51.482;9.160;2023-07-31T03:37:12;5.05;;;2.75;;
77769;SDS011;66961;51.482;9.160;2023-07-31T03:39:37;6.43;;;3.38;;
77769;SDS011;66961;51.482;9.160;2023-07-31T03:42:03;6.22;;;3.05;;
77769;SDS011;66961;51.482;9.160;2023-07-31T03:44:28;6.88;;;3.15;;
77769;SDS011;66961;51.482;9.160;2023-07-31T03:46:53;5.83;;;3.10;;
77769;SDS011;66961;51.482;9.160;2023-07-31T03:49:19;4.73;;;3.03;;
77769;SDS011;66961;51.482;9.160;2023-07-31T03:51:44;5.53;;;3.00;;
77769;SDS011;66961;51.482;9.160;2023-07-31T03:54:09;5.67;;;3.03;;
77769;SDS011;66961;51.482;9.160;2023-07-31T03:56:34;4.40;;;2.90;;
77769;SDS011;66961;51.482;9.160;2023-07-31T03:59:00;6.57;;;3.00;;
77769;SDS011;66961;51.482;9.160;2023-07-31T04:01:25;7.30;;;3.30;;
77769;SDS011;66961;51.482;9.160;2023-07-31T04:03:51;6.22;;;2.33;;
77769;SDS011;66961;51.482;9.160;2023-07-31T04:06:16;4.13;;;2.70;;
77769;SDS011;66961;51.482;9.160;2023-07-31T04:08:42;8.00;;;2.73;;
77769;SDS011;66961;51.482;9.160;2023-07-31T04:11:07;5.50;;;2.57;;
77769;SDS011;66961;51.482;9.160;2023-07-31T04:13:32;5.73;;;2.73;;
77769;SDS011;66961;51.482;9.160;2023-07-31T04:15:57;6.93;;;3.00;;
77769;SDS011;66961;51.482;9.160;2023-07-31T04:18:24;9.00;;;3.10;;
77769;SDS011;66961;51.482;9.160;2023-07-31T04:20:50;8.18;;;2.63;;
77769;SDS011;66961;51.482;9.160;2023-07-31T04:23:15;6.53;;;2.30;;
77769;SDS011;66961;51.482;9.160;2023-07-31T04:25:40;5.23;;;3.20;;
77769;SDS011;66961;51.482;9.160;2023-07-31T04:28:05;4.37;;;2.23;;
77769;SDS011;66961;51.482;9.160;2023-07-31T04:30:31;4.13;;;2.17;;
77769;SDS011;66961;51.482;9.160;2023-07-31T04:32:56;4.17;;;2.10;;
77769;SDS011;66961;51.482;9.160;2023-07-31T04:35:21;5.17;;;2.43;;
77769;SDS011;66961;51.482;9.160;2023-07-31T04:37:46;6.60;;;2.53;;
77769;SDS011;66961;51.482;9.160;2023-07-31T04:40:12;4.17;;;2.10;;
77769;SDS011;66961;51.482;9.160;2023-07-31T04:42:37;5.50;;;2.30;;
77769;SDS011;66961;51.482;9.160;2023-07-31T04:45:02;5.47;;;2.30;;
77769;SDS011;66961;51.482;9.160;2023-07-31T04:47:28;8.20;;;2.38;;
77769;SDS011;66961;51.482;9.160;2023-07-31T04:49:53;6.30;;;2.08;;
77769;SDS011;66961;51.482;9.160;2023-07-31T04:52:19;4.17;;;1.93;;
77769;SDS011;66961;51.482;9.160;2023-07-31T04:54:44;7.60;;;2.20;;
77769;SDS011;66961;51.482;9.160;2023-07-31T04:57:09;4.93;;;2.57;;
77769;SDS011;66961;51.482;9.160;2023-07-31T04:59:34;4.90;;;2.20;;
77769;SDS011;66961;51.482;9.160;2023-07-31T05:02:00;5.73;;;2.20;;
77769;SDS011;66961;51.482;9.160;2023-07-31T05:04:25;7.33;;;2.40;;
77769;SDS011;66961;51.482;9.160;2023-07-31T05:06:50;6.83;;;2.23;;
77769;SDS011;66961;51.482;9.160;2023-07-31T05:09:15;6.53;;;3.17;;
77769;SDS011;66961;51.482;9.160;2023-07-31T05:11:41;5.10;;;2.17;;
77769;SDS011;66961;51.482;9.160;2023-07-31T05:14:06;6.27;;;2.33;;
77769;SDS011;66961;51.482;9.160;2023-07-31T05:16:31;4.57;;;2.50;;
77769;SDS011;66961;51.482;9.160;2023-07-31T05:18:56;5.63;;;2.30;;
77769;SDS011;66961;51.482;9.160;2023-07-31T05:21:22;4.50;;;2.28;;
77769;SDS011;66961;51.482;9.160;2023-07-31T05:23:47;7.43;;;2.60;;
77769;SDS011;66961;51.482;9.160;2023-07-31T05:26:12;3.83;;;2.20;;
77769;SDS011;66961;51.482;9.160;2023-07-31T05:28:38;8.07;;;2.37;;
77769;SDS011;66961;51.482;9.160;2023-07-31T05:31:03;7.77;;;2.70;;
77769;SDS011;66961;51.482;9.160;2023-07-31T05:33:29;7.40;;;2.70;;
77769;SDS011;66961;51.482;9.160;2023-07-31T05:35:55;8.80;;;2.67;;
77769;SDS011;66961;51.482;9.160;2023-07-31T05:38:20;6.60;;;2.93;;
77769;SDS011;66961;51.482;9.160;2023-07-31T05:40:46;5.83;;;2.30;;
77769;SDS011;66961;51.482;9.160;2023-07-31T05:43:12;5.88;;;2.55;;
77769;SDS011;66961;51.482;9.160;2023-07-31T05:45:37;4.93;;;2.42;;
77769;SDS011;66961;51.482;9.160;2023-07-31T05:48:02;6.97;;;2.72;;
77769;SDS011;66961;51.482;9.160;2023-07-31T05:50:30;4.65;;;2.83;;
77769;SDS011;66961;51.482;9.160;2023-07-31T05:52:55;6.97;;;2.70;;
77769;SDS011;66961;51.482;9.160;2023-07-31T05:55:20;6.53;;;2.50;;
77769;SDS011;66961;51.482;9.160;2023-07-31T05:57:46;6.32;;;2.67;;
77769;SDS011;66961;51.482;9.160;2023-07-31T06:00:11;6.60;;;2.30;;
77769;SDS011;66961;51.482;9.160;2023-07-31T06:02:37;5.25;;;2.17;;
77769;SDS011;66961;51.482;9.160;2023-07-31T06:05:03;4.67;;;2.50;;
77769;SDS011;66961;51.482;9.160;2023-07-31T06:07:30;5.43;;;2.50;;
77769;SDS011;66961;51.482;9.160;2023-07-31T06:09:55;5.73;;;2.80;;
77769;SDS011;66961;51.482;9.160;2023-07-31T06:12:20;4.97;;;2.73;;
77769;SDS011;66961;51.482;9.160;2023-07-31T06:14:46;6.00;;;2.35;;
77769;SDS011;66961;51.482;9.160;2023-07-31T06:17:11;4.13;;;2.40;;
77769;SDS011;66961;51.482;9.160;2023-07-31T06:19:36;7.95;;;2.80;;
77769;SDS011;66961;51.482;9.160;2023-07-31T06:22:01;6.97;;;2.60;;
77769;SDS011;66961;51.482;9.160;2023-07-31T06:24:27;6.13;;;2.65;;
77769;SDS011;66961;51.482;9.160;2023-07-31T06:26:53;3.90;;;2.28;;
77769;SDS011;66961;51.482;9.160;2023-07-31T06:29:18;5.17;;;3.10;;
77769;SDS011;66961;51.482;9.160;2023-07-31T06:31:43;6.60;;;2.60;;
77769;SDS011;66961;51.482;9.160;2023-07-31T06:34:09;6.50;;;2.75;;
77769;SDS011;66961;51.482;9.160;2023-07-31T06:36:34;5.43;;;2.67;;
77769;SDS011;66961;51.482;9.160;2023-07-31T06:38:59;7.00;;;2.70;;
77769;SDS011;66961;51.482;9.160;2023-07-31T06:41:24;8.03;;;3.03;;
77769;SDS011;66961;51.482;9.160;2023-07-31T06:43:50;6.07;;;2.47;;
77769;SDS011;66961;51.482;9.160;2023-07-31T06:46:15;4.17;;;2.40;;
77769;SDS011;66961;51.482;9.160;2023-07-31T06:48:40;3.33;;;2.53;;
77769;SDS011;66961;51.482;9.160;2023-07-31T06:51:05;6.33;;;2.50;;
77769;SDS011;66961;51.482;9.160;2023-07-31T06:53:31;6.63;;;3.13;;
77769;SDS011;66961;51.482;9.160;2023-07-31T06:55:56;8.32;;;3.17;;
77769;SDS011;66961;51.482;9.160;2023-07-31T06:58:21;7.15;;;3.10;;
77769;SDS011;66961;51.482;9.160;2023-07-31T07:00:47;5.82;;;3.10;;
77769;SDS011;66961;51.482;9.160;2023-07-31T07:03:12;5.80;;;3.27;;
77769;SDS011;66961;51.482;9.160;2023-07-31T07:05:37;6.70;;;3.67;;
77769;SDS011;66961;51.482;9.160;2023-07-31T07:08:02;4.60;;;3.30;;
77769;SDS011;66961;51.482;9.160;2023-07-31T07:10:28;4.95;;;3.35;;
77769;SDS011;66961;51.482;9.160;2023-07-31T07:12:54;6.23;;;3.30;;
77769;SDS011;66961;51.482;9.160;2023-07-31T07:15:19;5.60;;;3.45;;
77769;SDS011;66961;51.482;9.160;2023-07-31T07:17:44;9.10;;;3.47;;
77769;SDS011;66961;51.482;9.160;2023-07-31T07:20:10;8.53;;;3.40;;
77769;SDS011;66961;51.482;9.160;2023-07-31T07:22:35;6.20;;;3.63;;
77769;SDS011;66961;51.482;9.160;2023-07-31T07:25:01;6.65;;;3.08;;
77769;SDS011;66961;51.482;9.160;2023-07-31T07:27:26;4.13;;;2.80;;
77769;SDS011;66961;51.482;9.160;2023-07-31T07:29:52;6.85;;;3.40;;
77769;SDS011;66961;51.482;9.160;2023-07-31T07:32:17;4.43;;;2.83;;
77769;SDS011;66961;51.482;9.160;2023-07-31T07:34:42;10.10;;;3.27;;
77769;SDS011;66961;51.482;9.160;2023-07-31T07:37:07;4.37;;;2.40;;
77769;SDS011;66961;51.482;9.160;2023-07-31T07:39:33;4.47;;;2.87;;
77769;SDS011;66961;51.482;9.160;2023-07-31T07:41:58;5.50;;;2.80;;
77769;SDS011;66961;51.482;9.160;2023-07-31T07:44:23;4.23;;;2.60;;
77769;SDS011;66961;51.482;9.160;2023-07-31T07:46:48;4.80;;;2.57;;
77769;SDS011;66961;51.482;9.160;2023-07-31T07:49:14;3.00;;;2.20;;
77769;SDS011;66961;51.482;9.160;2023-07-31T07:51:39;4.90;;;2.20;;
77769;SDS011;66961;51.482;9.160;2023-07-31T07:54:04;5.07;;;2.27;;
77769;SDS011;66961;51.482;9.160;2023-07-31T07:56:29;3.10;;;2.00;;
77769;SDS011;66961;51.482;9.160;2023-07-31T07:58:55;3.87;;;2.40;;
77769;SDS011;66961;51.482;9.160;2023-07-31T08:01:20;7.18;;;2.60;;
77769;SDS011;66961;51.482;9.160;2023-07-31T08:03:49;3.80;;;2.00;;
77769;SDS011;66961;51.482;9.160;2023-07-31T08:06:15;4.20;;;1.90;;
77769;SDS011;66961;51.482;9.160;2023-07-31T08:08:40;5.43;;;2.37;;
77769;SDS011;66961;51.482;9.160;2023-07-31T08:11:05;5.97;;;2.50;;
77769;SDS011;66961;51.482;9.160;2023-07-31T08:13:31;5.07;;;2.42;;
77769;SDS011;66961;51.482;9.160;2023-07-31T08:15:56;4.40;;;2.70;;
77769;SDS011;66961;51.482;9.160;2023-07-31T08:18:22;6.20;;;2.83;;
77769;SDS011;66961;51.482;9.160;2023-07-31T08:20:47;6.97;;;2.63;;
77769;SDS011;66961;51.482;9.160;2023-07-31T08:23:12;6.68;;;3.00;;
77769;SDS011;66961;51.482;9.160;2023-07-31T08:25:38;5.03;;;2.63;;
77769;SDS011;66961;51.482;9.160;2023-07-31T08:28:03;4.43;;;2.85;;
77769;SDS011;66961;51.482;9.160;2023-07-31T08:30:30;9.52;;;3.00;;
77769;SDS011;66961;51.482;9.160;2023-07-31T08:32:55;7.57;;;3.55;;
77769;SDS011;66961;51.482;9.160;2023-07-31T08:35:21;5.28;;;2.58;;
77769;SDS011;66961;51.482;9.160;2023-07-31T08:37:46;5.93;;;3.08;;
77769;SDS011;66961;51.482;9.160;2023-07-31T08:40:11;5.03;;;2.77;;
77769;SDS011;66961;51.482;9.160;2023-07-31T08:42:43;6.80;;;3.00;;
77769;SDS011;66961;51.482;9.160;2023-07-31T08:45:09;6.10;;;2.85;;
77769;SDS011;66961;51.482;9.160;2023-07-31T08:47:38;6.38;;;2.95;;
77769;SDS011;66961;51.482;9.160;2023-07-31T08:50:04;5.45;;;3.05;;
77769;SDS011;66961;51.482;9.160;2023-07-31T08:52:30;7.32;;;3.42;;
77769;SDS011;66961;51.482;9.160;2023-07-31T08:54:55;6.30;;;3.03;;
77769;SDS011;66961;51.482;9.160;2023-07-31T08:57:21;7.70;;;2.80;;
77769;SDS011;66961;51.482;9.160;2023-07-31T08:59:46;4.75;;;2.78;;
77769;SDS011;66961;51.482;9.160;2023-07-31T09:02:12;7.55;;;3.47;;
77769;SDS011;66961;51.482;9.160;2023-07-31T09:04:38;4.63;;;2.80;;
77769;SDS011;66961;51.482;9.160;2023-07-31T09:07:04;7.05;;;3.30;;
77769;SDS011;66961;51.482;9.160;2023-07-31T09:09:30;5.70;;;2.83;;
77769;SDS011;66961;51.482;9.160;2023-07-31T09:11:57;5.35;;;3.10;;
77769;SDS011;66961;51.482;9.160;2023-07-31T09:14:22;8.65;;;3.15;;
77769;SDS011;66961;51.482;9.160;2023-07-31T09:16:53;6.90;;;3.00;;
77769;SDS011;66961;51.482;9.160;2023-07-31T09:19:26;4.72;;;2.75;;
77769;SDS011;66961;51.482;9.160;2023-07-31T09:21:55;5.78;;;2.60;;
77769;SDS011;66961;51.482;9.160;2023-07-31T09:24:29;5.55;;;2.67;;
77769;SDS011;66961;51.482;9.160;2023-07-31T09:26:56;7.82;;;3.05;;
77769;SDS011;66961;51.482;9.160;2023-07-31T09:29:23;6.65;;;2.70;;
77769;SDS011;66961;51.482;9.160;2023-07-31T09:31:48;4.88;;;2.97;;
77769;SDS011;66961;51.482;9.160;2023-07-31T09:34:13;7.00;;;2.92;;
77769;SDS011;66961;51.482;9.160;2023-07-31T09:36:39;6.97;;;2.67;;
77769;SDS011;66961;51.482;9.160;2023-07-31T09:39:06;6.43;;;2.78;;
77769;SDS011;66961;51.482;9.160;2023-07-31T09:41:37;6.38;;;2.65;;
77769;SDS011;66961;51.482;9.160;2023-07-31T09:44:06;5.85;;;2.75;;
77769;SDS011;66961;51.482;9.160;2023-07-31T09:46:33;4.13;;;2.30;;
77769;SDS011;66961;51.482;9.160;2023-07-31T09:49:09;3.40;;;2.45;;
77769;SDS011;66961;51.482;9.160;2023-07-31T09:51:36;5.75;;;2.40;;
77769;SDS011;66961;51.482;9.160;2023-07-31T09:54:03;4.50;;;2.65;;
77769;SDS011;66961;51.482;9.160;2023-07-31T09:56:28;5.20;;;2.65;;
77769;SDS011;66961;51.482;9.160;2023-07-31T09:58:54;4.80;;;2.80;;
77769;SDS011;66961;51.482;9.160;2023-07-31T10:01:20;3.65;;;2.50;;
77769;SDS011;66961;51.482;9.160;2023-07-31T10:03:46;5.10;;;2.70;;
77769;SDS011;66961;51.482;9.160;2023-07-31T10:06:11;6.40;;;3.13;;
77769;SDS011;66961;51.482;9.160;2023-07-31T10:08:38;4.95;;;3.30;;
77769;SDS011;66961;51.482;9.160;2023-07-31T10:11:04;4.95;;;2.78;;
77769;SDS011;66961;51.482;9.160;2023-07-31T10:13:32;4.93;;;3.10;;
77769;SDS011;66961;51.482;9.160;2023-07-31T10:15:58;5.18;;;2.88;;
77769;SDS011;66961;51.482;9.160;2023-07-31T10:18:25;5.88;;;3.28;;
77769;SDS011;66961;51.482;9.160;2023-07-31T10:20:51;4.20;;;2.50;;
77769;SDS011;66961;51.482;9.160;2023-07-31T10:23:19;6.07;;;2.53;;
77769;SDS011;66961;51.482;9.160;2023-07-31T10:25:45;5.85;;;2.65;;
77769;SDS011;66961;51.482;9.160;2023-07-31T10:28:11;5.65;;;3.22;;
77769;SDS011;66961;51.482;9.160;2023-07-31T10:30:37;5.90;;;3.15;;
77769;SDS011;66961;51.482;9.160;2023-07-31T10:33:03;4.85;;;3.08;;
77769;SDS011;66961;51.482;9.160;2023-07-31T10:35:30;4.82;;;3.03;;
77769;SDS011;66961;51.482;9.160;2023-07-31T10:37:56;7.47;;;3.15;;
77769;SDS011;66961;51.482;9.160;2023-07-31T10:40:34;4.97;;;3.03;;
77769;SDS011;66961;51.482;9.160;2023-07-31T10:43:00;6.30;;;2.83;;
77769;SDS011;66961;51.482;9.160;2023-07-31T10:45:32;3.67;;;2.40;;
77769;SDS011;66961;51.482;9.160;2023-07-31T10:48:06;4.72;;;2.78;;
77769;SDS011;66961;51.482;9.160;2023-07-31T10:50:37;4.40;;;2.53;;
77769;SDS011;66961;51.482;9.160;2023-07-31T10:53:03;5.75;;;2.45;;
77769;SDS011;66961;51.482;9.160;2023-07-31T10:58:08;4.18;;;2.50;;
77769;SDS011;66961;51.482;9.160;2023-07-31T11:00:36;5.10;;;2.78;;
77769;SDS011;66961;51.482;9.160;2023-07-31T11:03:04;6.20;;;2.67;;
77769;SDS011;66961;51.482;9.160;2023-07-31T11:08:22;5.95;;;2.45;;
77769;SDS011;66961;51.482;9.160;2023-07-31T11:10:49;4.57;;;2.45;;
77769;SDS011;66961;51.482;9.160;2023-07-31T11:13:39;4.07;;;2.60;;
77769;SDS011;66961;51.482;9.160;2023-07-31T11:16:06;3.42;;;2.08;;
77769;SDS011;66961;51.482;9.160;2023-07-31T11:18:31;4.90;;;2.28;;
77769;SDS011;66961;51.482;9.160;2023-07-31T11:20:57;5.70;;;2.28;;
77769;SDS011;66961;51.482;9.160;2023-07-31T11:23:22;3.33;;;1.83;;
77769;SDS011;66961;51.482;9.160;2023-07-31T11:25:48;3.67;;;2.22;;
77769;SDS011;66961;51.482;9.160;2023-07-31T11:28:15;3.58;;;1.98;;
77769;SDS011;66961;51.482;9.160;2023-07-31T11:30:41;2.33;;;1.80;;
77769;SDS011;66961;51.482;9.160;2023-07-31T11:33:08;2.92;;;1.67;;
77769;SDS011;66961;51.482;9.160;2023-07-31T11:35:36;4.05;;;1.95;;
77769;SDS011;66961;51.482;9.160;2023-07-31T11:38:06;2.72;;;1.73;;
77769;SDS011;66961;51.482;9.160;2023-07-31T11:40:31;3.72;;;1.92;;
77769;SDS011;66961;51.482;9.160;2023-07-31T11:42:57;3.27;;;2.07;;
77769;SDS011;66961;51.482;9.160;2023-07-31T11:45:24;3.20;;;1.60;;
77769;SDS011;66961;51.482;9.160;2023-07-31T11:47:51;5.35;;;1.88;;
77769;SDS011;66961;51.482;9.160;2023-07-31T11:50:16;1.95;;;1.40;;
77769;SDS011;66961;51.482;9.160;2023-07-31T11:52:43;2.00;;;1.23;;
77769;SDS011;66961;51.482;9.160;2023-07-31T11:55:11;1.67;;;1.20;;
77769;SDS011;66961;51.482;9.160;2023-07-31T11:57:38;4.75;;;1.20;;
77769;SDS011;66961;51.482;9.160;2023-07-31T12:00:05;4.82;;;1.17;;
77769;SDS011;66961;51.482;9.160;2023-07-31T12:02:33;2.30;;;1.10;;
77769;SDS011;66961;51.482;9.160;2023-07-31T12:04:59;2.45;;;1.17;;
77769;SDS011;66961;51.482;9.160;2023-07-31T12:07:24;3.50;;;1.27;;
77769;SDS011;66961;51.482;9.160;2023-07-31T12:09:53;1.58;;;1.10;;
77769;SDS011;66961;51.482;9.160;2023-07-31T12:12:20;4.15;;;1.38;;
77769;SDS011;66961;51.482;9.160;2023-07-31T12:14:46;4.78;;;1.33;;
77769;SDS011;66961;51.482;9.160;2023-07-31T12:17:11;2.93;;;1.47;;
77769;SDS011;66961;51.482;9.160;2023-07-31T12:19:37;2.03;;;1.13;;
77769;SDS011;66961;51.482;9.160;2023-07-31T12:22:02;3.28;;;1.42;;
77769;SDS011;66961;51.482;9.160;2023-07-31T12:24:40;3.60;;;1.35;;
77769;SDS011;66961;51.482;9.160;2023-07-31T12:27:13;3.38;;;1.33;;
77769;SDS011;66961;51.482;9.160;2023-07-31T12:29:40;4.15;;;1.60;;
77769;SDS011;66961;51.482;9.160;2023-07-31T12:32:25;4.43;;;1.83;;
77769;SDS011;66961;51.482;9.160;2023-07-31T12:34:51;4.18;;;1.63;;
77769;SDS011;66961;51.482;9.160;2023-07-31T12:37:16;2.92;;;1.40;;
77769;SDS011;66961;51.482;9.160;2023-07-31T12:39:42;3.20;;;1.60;;
77769;SDS011;66961;51.482;9.160;2023-07-31T12:42:07;5.10;;;1.80;;
77769;SDS011;66961;51.482;9.160;2023-07-31T12:44:32;2.47;;;1.60;;
77769;SDS011;66961;51.482;9.160;2023-07-31T12:46:58;4.83;;;2.20;;
77769;SDS011;66961;51.482;9.160;2023-07-31T12:49:23;3.93;;;1.70;;
77769;SDS011;66961;51.482;9.160;2023-07-31T12:51:48;3.20;;;1.30;;
77769;SDS011;66961;51.482;9.160;2023-07-31T12:54:14;3.53;;;1.40;;
77769;SDS011;66961;51.482;9.160;2023-07-31T12:56:39;2.67;;;1.60;;
77769;SDS011;66961;51.482;9.160;2023-07-31T12:59:05;2.88;;;1.40;;
77769;SDS011;66961;51.482;9.160;2023-07-31T13:01:30;4.80;;;1.70;;
77769;SDS011;66961;51.482;9.160;2023-07-31T13:03:55;5.87;;;1.80;;
77769;SDS011;66961;51.482;9.160;2023-07-31T13:06:21;3.37;;;1.60;;
77769;SDS011;66961;51.482;9.160;2023-07-31T13:08:46;2.85;;;1.70;;
77769;SDS011;66961;51.482;9.160;2023-07-31T13:11:12;5.32;;;1.95;;
77769;SDS011;66961;51.482;9.160;2023-07-31T13:13:37;3.53;;;1.80;;
77769;SDS011;66961;51.482;9.160;2023-07-31T13:16:02;3.30;;;1.70;;
77769;SDS011;66961;51.482;9.160;2023-07-31T13:18:28;4.68;;;1.88;;
77769;SDS011;66961;51.482;9.160;2023-07-31T13:20:53;5.95;;;1.95;;
77769;SDS011;66961;51.482;9.160;2023-07-31T13:23:18;4.20;;;1.77;;
77769;SDS011;66961;51.482;9.160;2023-07-31T13:25:43;3.93;;;2.07;;
77769;SDS011;66961;51.482;9.160;2023-07-31T13:28:09;3.40;;;1.83;;
77769;SDS011;66961;51.482;9.160;2023-07-31T13:30:34;4.90;;;1.90;;
77769;SDS011;66961;51.482;9.160;2023-07-31T13:32:59;3.30;;;1.73;;
77769;SDS011;66961;51.482;9.160;2023-07-31T13:35:24;5.27;;;2.27;;
77769;SDS011;66961;51.482;9.160;2023-07-31T13:37:50;3.93;;;2.00;;
77769;SDS011;66961;51.482;9.160;2023-07-31T13:40:15;5.70;;;2.10;;
77769;SDS011;66961;51.482;9.160;2023-07-31T13:42:40;3.70;;;1.87;;
77769;SDS011;66961;51.482;9.160;2023-07-31T13:45:05;2.50;;;1.57;;
77769;SDS011;66961;51.482;9.160;2023-07-31T13:47:31;3.00;;;1.55;;
77769;SDS011;66961;51.482;9.160;2023-07-31T13:49:56;2.70;;;1.45;;
77769;SDS011;66961;51.482;9.160;2023-07-31T13:52:22;3.63;;;1.93;;
77769;SDS011;66961;51.482;9.160;2023-07-31T13:54:47;2.63;;;1.40;;
77769;SDS011;66961;51.482;9.160;2023-07-31T13:57:12;3.67;;;1.60;;
77769;SDS011;66961;51.482;9.160;2023-07-31T13:59:37;4.97;;;1.60;;
77769;SDS011;66961;51.482;9.160;2023-07-31T14:02:03;3.33;;;1.47;;
77769;SDS011;66961;51.482;9.160;2023-07-31T14:04:28;4.00;;;1.70;;
77769;SDS011;66961;51.482;9.160;2023-07-31T14:06:54;3.33;;;1.80;;
77769;SDS011;66961;51.482;9.160;2023-07-31T14:09:20;4.63;;;1.65;;
77769;SDS011;66961;51.482;9.160;2023-07-31T14:11:46;2.37;;;1.60;;
77769;SDS011;66961;51.482;9.160;2023-07-31T14:14:11;3.30;;;1.53;;
77769;SDS011;66961;51.482;9.160;2023-07-31T14:16:36;4.77;;;1.73;;
77769;SDS011;66961;51.482;9.160;2023-07-31T14:19:01;3.53;;;1.70;;
77769;SDS011;66961;51.482;9.160;2023-07-31T14:21:27;2.40;;;1.30;;
77769;SDS011;66961;51.482;9.160;2023-07-31T14:23:52;2.87;;;1.30;;
77769;SDS011;66961;51.482;9.160;2023-07-31T14:26:17;7.33;;;1.20;;
77769;SDS011;66961;51.482;9.160;2023-07-31T14:28:43;3.47;;;1.98;;
77769;SDS011;66961;51.482;9.160;2023-07-31T14:31:08;2.30;;;1.15;;
77769;SDS011;66961;51.482;9.160;2023-07-31T14:33:33;3.13;;;1.40;;
77769;SDS011;66961;51.482;9.160;2023-07-31T14:35:58;3.60;;;1.67;;
77769;SDS011;66961;51.482;9.160;2023-07-31T14:38:24;2.10;;;1.50;;
77769;SDS011;66961;51.482;9.160;2023-07-31T14:40:49;3.35;;;1.40;;
77769;SDS011;66961;51.482;9.160;2023-07-31T14:43:15;2.17;;;1.10;;
77769;SDS011;66961;51.482;9.160;2023-07-31T14:45:40;2.15;;;1.00;;
77769;SDS011;66961;51.482;9.160;2023-07-31T14:48:05;3.40;;;1.38;;
77769;SDS011;66961;51.482;9.160;2023-07-31T14:50:31;2.27;;;1.10;;
77769;SDS011;66961;51.482;9.160;2023-07-31T14:52:56;1.70;;;1.10;;